F/V Seeker — WTE5329 — position and weather

sailwx.info

Track history (hours):
 
Tides and Currents Weather Stations Pressure Air Temp Water Temp Dewpoint Dewpoint Depression Visibility Wind Speed Wind Dir Waves Ship Positions

F/V Seeker

Owner: COOPER, LAWRENCE E, NEWPORT, OR. More information available from US FCC via Universal Licensing System and Coast Guard Vessel Documentation Center.

Last reported at 2017-Nov-06 02:30 UTC. Time now 2017-Dec-17 16:03 UTC.
Position N 46°07' W 124°06'.
Warning: this ship's position is 41 days out of date.

Length 30 m; draft 4 m.

Type: Fishing. MMSI: 368578000.

Date/timePositionNaut miles runAvg speedWind from/ knotsBaromVisibWave heightAir tempDewpointWater temp
2017-Nov-06 02:30N 46°07' W 124°06'3 6.8
2017-Nov-06 02:00N 46°11' W 124°06'4 7.2
2017-Nov-06 01:30N 46°14' W 124°06'4 9.0
2017-Nov-06 01:00N 46°15' W 123°60'612.8
2017-Nov-06 00:30N 46°12' W 123°51'4 8.2
2017-Nov-06 00:00N 46°12' W 123°46'0 0.0
2017-Nov-05 23:30N 46°12' W 123°46'0 0.0
2017-Nov-05 23:01N 46°12' W 123°46'0 0.0
2017-Nov-05 22:31N 46°12' W 123°46'0 0.0
2017-Nov-05 22:00N 46°12' W 123°46'0 0.0
2017-Nov-05 21:31N 46°12' W 123°46'0 0.0
2017-Nov-05 21:00N 46°12' W 123°46'0 0.0
2017-Nov-05 20:25N 46°12' W 123°46'0 0.0
2017-Nov-05 20:00N 46°12' W 123°46'0 0.0
2017-Nov-05 19:30N 46°12' W 123°46'0 0.0
2017-Nov-05 19:00N 46°12' W 123°46'0 0.0
2017-Nov-05 18:30N 46°12' W 123°46'0 0.0
2017-Nov-05 18:00N 46°12' W 123°46'0 0.7
2017-Nov-05 17:30N 46°12' W 123°45'4 8.1
2017-Nov-05 17:00N 46°12' W 123°51'4 8.6
2017-Nov-05 16:30N 46°13' W 123°57'4 8.7
2017-Nov-05 16:00N 46°15' W 124°02'3 6.8
2017-Nov-05 15:30N 46°15' W 124°07'2 4.4
2017-Nov-05 15:00N 46°16' W 124°10'0 0.8
2017-Nov-05 14:30N 46°16' W 124°11'1 1.3
2017-Nov-05 14:00N 46°16' W 124°10'1 1.9
2017-Nov-05 13:31N 46°17' W 124°08'2 3.5
2017-Nov-05 13:01N 46°18' W 124°09'2 3.2
2017-Nov-05 12:30N 46°20' W 124°09'4 8.6
2017-Nov-05 12:01N 46°24' W 124°11'4 8.6
2017-Nov-05 11:31N 46°28' W 124°12'4 8.4
2017-Nov-05 11:01N 46°32' W 124°13'4 8.6
2017-Nov-05 10:31N 46°36' W 124°15'4 8.9
2017-Nov-05 10:01N 46°41' W 124°16'5 9.1
2017-Nov-05 09:31N 46°45' W 124°18'5 9.0
2017-Nov-05 09:00N 46°50' W 124°19'4 8.7
2017-Nov-05 08:30N 46°54' W 124°21'4 8.6
2017-Nov-05 08:00N 46°58' W 124°22'81 5.3
2017-Nov-04 16:39N 48°09' W 125°19'3 1.9
2017-Nov-04 15:17N 48°11' W 125°17'2 6.0
2017-Nov-04 14:59N 48°12' W 125°14'2 3.9
2017-Nov-04 14:30N 48°14' W 125°12'1 1.3
2017-Nov-04 13:53N 48°14' W 125°12'1 2.2
2017-Nov-04 13:29N 48°13' W 125°12'2 4.2
2017-Nov-04 13:00N 48°12' W 125°14'0 0.2
2017-Nov-04 10:40N 48°11' W 125°14'2 4.3
2017-Nov-04 10:15N 48°13' W 125°12'1 4.2
2017-Nov-04 09:56N 48°14' W 125°11'2 4.0
2017-Nov-04 09:29N 48°15' W 125°10'1 2.7
2017-Nov-04 08:59N 48°16' W 125°08'2 4.5
2017-Nov-04 08:28N 48°14' W 125°10'3 4.7
2017-Nov-04 07:53N 48°12' W 125°13'1 0.9
2017-Nov-04 06:16N 48°11' W 125°14'1 3.6
2017-Nov-04 05:55N 48°12' W 125°13'2 3.8
2017-Nov-04 05:28N 48°13' W 125°11'2 4.0
2017-Nov-04 04:59N 48°15' W 125°09'0 1.0
2017-Nov-04 04:30N 48°15' W 125°09'2 3.4
2017-Nov-04 03:51N 48°14' W 125°11'1 3.3
2017-Nov-04 03:31N 48°13' W 125°12'2 2.9
2017-Nov-04 02:58N 48°12' W 125°13'2 3.7
2017-Nov-04 02:23N 48°14' W 125°13'78 4.3
2017-Nov-03 08:04N 46°59' W 124°37'0 8.0
2017-Nov-03 08:00N 46°59' W 124°37'4 8.1
2017-Nov-03 07:30N 46°55' W 124°35'4 7.8
2017-Nov-03 07:01N 46°52' W 124°32'4 7.6
2017-Nov-03 06:31N 46°48' W 124°30'4 7.6
2017-Nov-03 06:01N 46°45' W 124°28'4 7.4
2017-Nov-03 05:30N 46°41' W 124°26'4 7.2
2017-Nov-03 05:01N 46°38' W 124°23'4 7.4
2017-Nov-03 04:31N 46°35' W 124°21'4 7.2
2017-Nov-03 04:00N 46°32' W 124°19'3 6.9
2017-Nov-03 03:31N 46°28' W 124°17'4 7.3
2017-Nov-03 03:01N 46°25' W 124°15'3 6.7
2017-Nov-03 02:30N 46°22' W 124°13'3 6.7
2017-Nov-03 02:00N 46°19' W 124°11'3 6.6
2017-Nov-03 01:30N 46°16' W 124°09'3 6.8
2017-Nov-03 01:01N 46°15' W 124°04'5 9.3
2017-Nov-03 00:31N 46°13' W 123°58'5 9.6
2017-Nov-03 00:00N 46°12' W 123°51'1 1.4
2017-Nov-02 23:31N 46°12' W 123°50'0 0.0
2017-Nov-02 23:01N 46°12' W 123°50'3 6.8
2017-Nov-02 22:30N 46°12' W 123°45'0 0.3
2017-Nov-02 22:00N 46°12' W 123°46'0 0.0
2017-Nov-02 21:30N 46°12' W 123°46'0 0.0
2017-Nov-02 21:01N 46°12' W 123°46'0 0.0
2017-Nov-02 20:30N 46°12' W 123°46'0 0.0
2017-Nov-02 20:01N 46°12' W 123°46'0 0.0
2017-Nov-02 19:30N 46°12' W 123°46'0 0.0
2017-Nov-02 19:01N 46°12' W 123°46'0 0.0
2017-Nov-02 18:30N 46°12' W 123°46'0 0.0
2017-Nov-02 18:00N 46°12' W 123°46'0 0.0
2017-Nov-02 17:31N 46°12' W 123°46'0 0.0
2017-Nov-02 17:01N 46°12' W 123°46'0 0.0
2017-Nov-02 16:30N 46°12' W 123°46'0 0.0
2017-Nov-02 16:01N 46°12' W 123°46'0 0.0
2017-Nov-02 15:31N 46°12' W 123°46'0 0.0
2017-Nov-02 15:01N 46°12' W 123°46'0 0.0
2017-Nov-02 14:30N 46°12' W 123°46'0 0.0
2017-Nov-02 14:00N 46°12' W 123°46'0 0.0
2017-Nov-02 13:31N 46°12' W 123°46'0 0.0
2017-Nov-02 13:01N 46°12' W 123°46'0 0.0
2017-Nov-02 12:31N 46°12' W 123°46'0 0.0
2017-Nov-02 12:01N 46°12' W 123°46'0 0.0
2017-Nov-02 11:30N 46°12' W 123°46'0 0.0
2017-Nov-02 11:01N 46°12' W 123°46'0 0.0
2017-Nov-02 10:31N 46°12' W 123°46'0 0.0
2017-Nov-02 10:01N 46°12' W 123°46'1 1.8
2017-Nov-02 09:30N 46°13' W 123°46'4 8.2
2017-Nov-02 09:01N 46°12' W 123°51'612.2
2017-Nov-02 08:30N 46°14' W 123°59'2 3.9
2017-Nov-02 08:01N 46°15' W 124°02'4 8.4
2017-Nov-02 07:31N 46°17' W 124°07'5 9.8
2017-Nov-02 07:00N 46°21' W 124°10'5 9.4
2017-Nov-02 06:31N 46°26' W 124°13'5 9.3
2017-Nov-02 06:01N 46°30' W 124°15'5 9.4
2017-Nov-02 05:31N 46°34' W 124°18'5 9.4
2017-Nov-02 05:00N 46°39' W 124°20'5 9.1
2017-Nov-02 04:30N 46°43' W 124°23'4 8.9
2017-Nov-02 04:01N 46°47' W 124°25'4 9.0
2017-Nov-02 03:31N 46°51' W 124°28'4 9.0
2017-Nov-02 03:00N 46°55' W 124°31'4 9.0
2017-Nov-02 02:30N 46°59' W 124°33'50 1.9
2017-Nov-01 01:04N 47°44' W 125°05'0 4.0
2017-Nov-01 01:01N 47°44' W 125°05'21 5.7
2017-Oct-31 21:24N 48°02' W 125°18'1 2.5
2017-Oct-31 20:56N 48°03' W 125°19'10 2.9
2017-Oct-31 17:28N 48°13' W 125°13'2 2.9
2017-Oct-31 16:55N 48°11' W 125°14'1 3.3
2017-Oct-31 16:28N 48°10' W 125°15'10 5.7
2017-Oct-31 14:38N 47°60' W 125°19'0 0.2
2017-Oct-31 14:30N 47°60' W 125°19'5 3.4
2017-Oct-31 13:07N 47°55' W 125°16'2 4.4
2017-Oct-31 12:45N 47°54' W 125°15'1 4.9
2017-Oct-31 12:29N 47°53' W 125°14'2 4.9
2017-Oct-31 12:00N 47°51' W 125°12'4 7.3
2017-Oct-31 11:27N 47°47' W 125°10'18 8.3
2017-Oct-31 09:19N 47°31' W 124°59'3 8.5
2017-Oct-31 08:59N 47°29' W 124°57'8 8.3
2017-Oct-31 08:00N 47°21' W 124°52'4 8.1
2017-Oct-31 07:31N 47°18' W 124°49'20 8.7
2017-Oct-31 05:17N 46°60' W 124°37'2 8.9
2017-Oct-31 05:00N 46°58' W 124°35'4 9.0
2017-Oct-31 04:30N 46°54' W 124°33'5 9.1
2017-Oct-31 04:00N 46°49' W 124°31'4 9.0
2017-Oct-31 03:31N 46°45' W 124°28'4 8.8
2017-Oct-31 03:00N 46°42' W 124°24'4 8.3
2017-Oct-31 02:31N 46°38' W 124°22'4 8.2
2017-Oct-31 02:00N 46°34' W 124°19'4 7.8
2017-Oct-31 01:28N 46°30' W 124°17'3 7.4
2017-Oct-31 01:01N 46°27' W 124°14'4 7.4
2017-Oct-31 00:31N 46°24' W 124°12'4 7.4
2017-Oct-31 00:00N 46°21' W 124°10'4 7.8
2017-Oct-30 23:31N 46°17' W 124°08'4 7.9
2017-Oct-30 23:01N 46°15' W 124°03'510.0
2017-Oct-30 22:31N 46°13' W 123°57'510.2
2017-Oct-30 22:01N 46°12' W 123°49'3 5.1
2017-Oct-30 21:31N 46°12' W 123°46'0 0.0
2017-Oct-30 21:00N 46°12' W 123°46'0 0.0
2017-Oct-30 20:30N 46°12' W 123°46'0 0.0
2017-Oct-30 20:01N 46°12' W 123°46'0 0.0
2017-Oct-30 19:30N 46°12' W 123°46'0 0.0
2017-Oct-30 19:00N 46°12' W 123°46'0 0.0
2017-Oct-30 18:30N 46°12' W 123°46'0 0.0
2017-Oct-30 18:00N 46°12' W 123°46'0 0.0
2017-Oct-30 17:31N 46°12' W 123°46'0 0.0
2017-Oct-30 17:00N 46°12' W 123°46'0 0.0
2017-Oct-30 16:30N 46°12' W 123°46'0 0.0
2017-Oct-30 16:01N 46°12' W 123°46'0 0.0
2017-Oct-30 15:31N 46°12' W 123°46'0 0.0
2017-Oct-30 15:01N 46°12' W 123°46'0 0.0
2017-Oct-30 14:23N 46°12' W 123°46'0 0.0
2017-Oct-30 13:31N 46°12' W 123°46'0 0.0
2017-Oct-30 13:00N 46°12' W 123°46'0 0.0
2017-Oct-30 12:31N 46°12' W 123°46'0 0.0
2017-Oct-30 12:00N 46°12' W 123°46'0 0.0
2017-Oct-30 11:31N 46°12' W 123°46'0 0.0
2017-Oct-30 11:01N 46°12' W 123°46'0 0.0
2017-Oct-30 10:31N 46°12' W 123°46'0 0.0
2017-Oct-30 10:01N 46°12' W 123°46'0 0.0
2017-Oct-30 09:30N 46°12' W 123°46'0 0.0
2017-Oct-30 09:01N 46°12' W 123°46'0 0.0
2017-Oct-30 08:31N 46°12' W 123°46'0 0.0
2017-Oct-30 08:01N 46°12' W 123°46'0 0.0
2017-Oct-30 07:30N 46°12' W 123°46'0 0.0
2017-Oct-30 07:01N 46°12' W 123°46'0 0.0
2017-Oct-30 06:31N 46°12' W 123°46'0 0.0
2017-Oct-30 06:00N 46°12' W 123°46'0 0.0
2017-Oct-30 05:31N 46°12' W 123°46'0 0.0
2017-Oct-30 05:00N 46°12' W 123°46'0 0.0
2017-Oct-30 04:30N 46°12' W 123°46'0 0.0
2017-Oct-30 04:00N 46°12' W 123°46'0 0.0
2017-Oct-30 03:30N 46°12' W 123°46'0 0.0
2017-Oct-30 02:47N 46°12' W 123°46'0 0.0
2017-Oct-30 02:31N 46°12' W 123°46'0 0.0
2017-Oct-30 01:49N 46°12' W 123°46'0 0.0
2017-Oct-30 01:31N 46°12' W 123°46'0 0.0
2017-Oct-30 01:01N 46°12' W 123°46'0 0.0
2017-Oct-30 00:31N 46°12' W 123°46'0 0.0
2017-Oct-30 00:01N 46°12' W 123°46'0 0.0
2017-Oct-29 23:30N 46°12' W 123°46'0 0.0
2017-Oct-29 23:00N 46°12' W 123°46'0 0.0
2017-Oct-29 22:30N 46°12' W 123°46'0 0.0
2017-Oct-29 22:01N 46°12' W 123°46'0 0.0
2017-Oct-29 21:30N 46°12' W 123°46'0 0.0
2017-Oct-29 21:01N 46°12' W 123°46'0 0.0
2017-Oct-29 20:30N 46°12' W 123°46'0 0.0
2017-Oct-29 20:01N 46°12' W 123°46'0 0.0
2017-Oct-29 19:30N 46°12' W 123°46'0 0.0
2017-Oct-29 19:01N 46°12' W 123°46'0 0.0
2017-Oct-29 18:31N 46°12' W 123°46'0 0.0
2017-Oct-29 18:00N 46°12' W 123°46'0 0.0
2017-Oct-29 17:31N 46°12' W 123°46'0 0.0
2017-Oct-29 17:01N 46°12' W 123°46'0 0.0
2017-Oct-29 16:30N 46°12' W 123°46'0 0.0
2017-Oct-29 16:01N 46°12' W 123°46'3 5.9
2017-Oct-29 15:30N 46°12' W 123°50'5 9.9
2017-Oct-29 15:01N 46°13' W 123°57'510.3
2017-Oct-29 14:31N 46°15' W 124°03'4 8.2
2017-Oct-29 14:00N 46°18' W 124°08'5 9.4
2017-Oct-29 13:30N 46°22' W 124°11'5 9.2
2017-Oct-29 13:01N 46°26' W 124°13'5 9.4
2017-Oct-29 12:29N 46°31' W 124°16'4 9.3
2017-Oct-29 12:01N 46°35' W 124°18'4 8.9
2017-Oct-29 11:31N 46°39' W 124°21'4 8.9
2017-Oct-29 11:00N 46°43' W 124°24'4 8.6
2017-Oct-29 10:31N 46°47' W 124°26'4 8.4
2017-Oct-29 10:01N 46°51' W 124°28'4 8.6
2017-Oct-29 09:30N 46°55' W 124°31'4 8.7
2017-Oct-29 09:00N 46°59' W 124°33'40 8.7
2017-Oct-29 04:24N 47°36' W 124°57'7 9.3
2017-Oct-29 03:41N 47°42' W 125°01'29 3.2
2017-Oct-28 18:24N 48°09' W 125°15'1 3.4
2017-Oct-28 18:00N 48°11' W 125°14'1 1.1
2017-Oct-28 17:01N 48°10' W 125°13'0 3.4
2017-Oct-28 16:59N 48°10' W 125°13'2 4.1
2017-Oct-28 16:30N 48°08' W 125°14'49 9.5
2017-Oct-28 11:19N 47°22' W 124°49'310.1
2017-Oct-28 11:00N 47°19' W 124°47'510.7
2017-Oct-28 10:30N 47°14' W 124°43'510.9
2017-Oct-28 10:00N 47°09' W 124°40'610.9
2017-Oct-28 09:29N 47°04' W 124°37'511.3
2017-Oct-28 09:00N 46°59' W 124°34'611.1
2017-Oct-28 08:30N 46°54' W 124°30'611.0
2017-Oct-28 08:00N 46°49' W 124°27'611.3
2017-Oct-28 07:31N 46°44' W 124°24'611.1
2017-Oct-28 07:01N 46°39' W 124°21'510.8
2017-Oct-28 06:30N 46°34' W 124°18'710.5
2017-Oct-28 05:50N 46°27' W 124°13'310.0
2017-Oct-28 05:30N 46°24' W 124°12'510.2
2017-Oct-28 05:00N 46°19' W 124°09'5 9.9
2017-Oct-28 04:30N 46°15' W 124°05'612.5
2017-Oct-28 04:00N 46°13' W 123°57'611.4
2017-Oct-28 03:30N 46°12' W 123°48'2 3.9
2017-Oct-28 03:00N 46°12' W 123°46'0 0.0
2017-Oct-28 02:30N 46°12' W 123°46'0 0.0
2017-Oct-28 02:00N 46°12' W 123°46'0 0.0
2017-Oct-28 01:30N 46°12' W 123°46'0 0.0
2017-Oct-28 01:00N 46°12' W 123°46'0 0.0
2017-Oct-28 00:30N 46°12' W 123°46'0 0.0
2017-Oct-28 00:00N 46°12' W 123°46'0 0.0
2017-Oct-27 23:31N 46°12' W 123°46'0 0.0
2017-Oct-27 23:01N 46°12' W 123°46'0 0.0
2017-Oct-27 22:31N 46°12' W 123°46'0 0.0
2017-Oct-27 22:01N 46°12' W 123°46'0 0.0
2017-Oct-27 21:29N 46°12' W 123°46'0 0.0
2017-Oct-27 21:01N 46°12' W 123°46'0 0.0
2017-Oct-27 20:30N 46°12' W 123°46'0 0.0
2017-Oct-27 20:01N 46°12' W 123°46'0 0.0
2017-Oct-27 19:31N 46°12' W 123°46'0 0.0
2017-Oct-27 18:59N 46°12' W 123°46'0 0.0
2017-Oct-27 18:28N 46°12' W 123°46'0 0.0
2017-Oct-27 18:01N 46°12' W 123°46'1 1.9
2017-Oct-27 17:30N 46°13' W 123°46'4 8.6
2017-Oct-27 17:00N 46°12' W 123°52'4 7.8
2017-Oct-27 16:31N 46°13' W 123°58'4 7.8
2017-Oct-27 16:00N 46°15' W 124°02'5 8.1
2017-Oct-27 15:22N 46°18' W 124°08'410.1
2017-Oct-27 15:01N 46°22' W 124°10'510.4
2017-Oct-27 14:31N 46°26' W 124°13'5 9.9
2017-Oct-27 14:01N 46°31' W 124°15'5 9.5
2017-Oct-27 13:30N 46°36' W 124°18'4 8.8
2017-Oct-27 13:00N 46°40' W 124°20'4 8.8
2017-Oct-27 12:30N 46°44' W 124°23'7 8.6
2017-Oct-27 11:43N 46°50' W 124°26'2 8.4
2017-Oct-27 11:30N 46°52' W 124°27'4 8.1
2017-Oct-27 11:01N 46°56' W 124°29'6 8.1
2017-Oct-27 10:20N 47°01' W 124°32'3 8.0
2017-Oct-27 10:00N 47°03' W 124°33'10 8.6
2017-Oct-27 08:50N 47°13' W 124°39'  
Track history (hours):
 
Tides and Currents Weather Stations Pressure Air Temp Water Temp Dewpoint Dewpoint Depression Visibility Wind Speed Wind Dir Waves Ship Positions

F/V Seeker

Owner: COOPER, LAWRENCE E, NEWPORT, OR. More information available from US FCC via Universal Licensing System and Coast Guard Vessel Documentation Center.

Last reported at 2017-Nov-06 02:30 UTC. Time now 2017-Dec-17 16:03 UTC.
Position N 46°07' W 124°06'.
Warning: this ship's position is 41 days out of date.

Length 30 m; draft 4 m.

Type: Fishing. MMSI: 368578000.

Date/timePositionNaut miles runAvg speedWind from/ knotsBaromVisibWave heightAir tempDewpointWater temp
2017-Nov-06 02:30N 46°07' W 124°06'3 6.8
2017-Nov-06 02:00N 46°11' W 124°06'4 7.2
2017-Nov-06 01:30N 46°14' W 124°06'4 9.0
2017-Nov-06 01:00N 46°15' W 123°60'612.8
2017-Nov-06 00:30N 46°12' W 123°51'4 8.2
2017-Nov-06 00:00N 46°12' W 123°46'0 0.0
2017-Nov-05 23:30N 46°12' W 123°46'0 0.0
2017-Nov-05 23:01N 46°12' W 123°46'0 0.0
2017-Nov-05 22:31N 46°12' W 123°46'0 0.0
2017-Nov-05 22:00N 46°12' W 123°46'0 0.0
2017-Nov-05 21:31N 46°12' W 123°46'0 0.0
2017-Nov-05 21:00N 46°12' W 123°46'0 0.0
2017-Nov-05 20:25N 46°12' W 123°46'0 0.0
2017-Nov-05 20:00N 46°12' W 123°46'0 0.0
2017-Nov-05 19:30N 46°12' W 123°46'0 0.0
2017-Nov-05 19:00N 46°12' W 123°46'0 0.0
2017-Nov-05 18:30N 46°12' W 123°46'0 0.0
2017-Nov-05 18:00N 46°12' W 123°46'0 0.7
2017-Nov-05 17:30N 46°12' W 123°45'4 8.1
2017-Nov-05 17:00N 46°12' W 123°51'4 8.6
2017-Nov-05 16:30N 46°13' W 123°57'4 8.7
2017-Nov-05 16:00N 46°15' W 124°02'3 6.8
2017-Nov-05 15:30N 46°15' W 124°07'2 4.4
2017-Nov-05 15:00N 46°16' W 124°10'0 0.8
2017-Nov-05 14:30N 46°16' W 124°11'1 1.3
2017-Nov-05 14:00N 46°16' W 124°10'1 1.9
2017-Nov-05 13:31N 46°17' W 124°08'2 3.5
2017-Nov-05 13:01N 46°18' W 124°09'2 3.2
2017-Nov-05 12:30N 46°20' W 124°09'4 8.6
2017-Nov-05 12:01N 46°24' W 124°11'4 8.6
2017-Nov-05 11:31N 46°28' W 124°12'4 8.4
2017-Nov-05 11:01N 46°32' W 124°13'4 8.6
2017-Nov-05 10:31N 46°36' W 124°15'4 8.9
2017-Nov-05 10:01N 46°41' W 124°16'5 9.1
2017-Nov-05 09:31N 46°45' W 124°18'5 9.0
2017-Nov-05 09:00N 46°50' W 124°19'4 8.7
2017-Nov-05 08:30N 46°54' W 124°21'4 8.6
2017-Nov-05 08:00N 46°58' W 124°22'81 5.3
2017-Nov-04 16:39N 48°09' W 125°19'3 1.9
2017-Nov-04 15:17N 48°11' W 125°17'2 6.0
2017-Nov-04 14:59N 48°12' W 125°14'2 3.9
2017-Nov-04 14:30N 48°14' W 125°12'1 1.3
2017-Nov-04 13:53N 48°14' W 125°12'1 2.2
2017-Nov-04 13:29N 48°13' W 125°12'2 4.2
2017-Nov-04 13:00N 48°12' W 125°14'0 0.2
2017-Nov-04 10:40N 48°11' W 125°14'2 4.3
2017-Nov-04 10:15N 48°13' W 125°12'1 4.2
2017-Nov-04 09:56N 48°14' W 125°11'2 4.0
2017-Nov-04 09:29N 48°15' W 125°10'1 2.7
2017-Nov-04 08:59N 48°16' W 125°08'2 4.5
2017-Nov-04 08:28N 48°14' W 125°10'3 4.7
2017-Nov-04 07:53N 48°12' W 125°13'1 0.9
2017-Nov-04 06:16N 48°11' W 125°14'1 3.6
2017-Nov-04 05:55N 48°12' W 125°13'2 3.8
2017-Nov-04 05:28N 48°13' W 125°11'2 4.0
2017-Nov-04 04:59N 48°15' W 125°09'0 1.0
2017-Nov-04 04:30N 48°15' W 125°09'2 3.4
2017-Nov-04 03:51N 48°14' W 125°11'1 3.3
2017-Nov-04 03:31N 48°13' W 125°12'2 2.9
2017-Nov-04 02:58N 48°12' W 125°13'2 3.7
2017-Nov-04 02:23N 48°14' W 125°13'78 4.3
2017-Nov-03 08:04N 46°59' W 124°37'0 8.0
2017-Nov-03 08:00N 46°59' W 124°37'4 8.1
2017-Nov-03 07:30N 46°55' W 124°35'4 7.8
2017-Nov-03 07:01N 46°52' W 124°32'4 7.6
2017-Nov-03 06:31N 46°48' W 124°30'4 7.6
2017-Nov-03 06:01N 46°45' W 124°28'4 7.4
2017-Nov-03 05:30N 46°41' W 124°26'4 7.2
2017-Nov-03 05:01N 46°38' W 124°23'4 7.4
2017-Nov-03 04:31N 46°35' W 124°21'4 7.2
2017-Nov-03 04:00N 46°32' W 124°19'3 6.9
2017-Nov-03 03:31N 46°28' W 124°17'4 7.3
2017-Nov-03 03:01N 46°25' W 124°15'3 6.7
2017-Nov-03 02:30N 46°22' W 124°13'3 6.7
2017-Nov-03 02:00N 46°19' W 124°11'3 6.6
2017-Nov-03 01:30N 46°16' W 124°09'3 6.8
2017-Nov-03 01:01N 46°15' W 124°04'5 9.3
2017-Nov-03 00:31N 46°13' W 123°58'5 9.6
2017-Nov-03 00:00N 46°12' W 123°51'1 1.4
2017-Nov-02 23:31N 46°12' W 123°50'0 0.0
2017-Nov-02 23:01N 46°12' W 123°50'3 6.8
2017-Nov-02 22:30N 46°12' W 123°45'0 0.3
2017-Nov-02 22:00N 46°12' W 123°46'0 0.0
2017-Nov-02 21:30N 46°12' W 123°46'0 0.0
2017-Nov-02 21:01N 46°12' W 123°46'0 0.0
2017-Nov-02 20:30N 46°12' W 123°46'0 0.0
2017-Nov-02 20:01N 46°12' W 123°46'0 0.0
2017-Nov-02 19:30N 46°12' W 123°46'0 0.0
2017-Nov-02 19:01N 46°12' W 123°46'0 0.0
2017-Nov-02 18:30N 46°12' W 123°46'0 0.0
2017-Nov-02 18:00N 46°12' W 123°46'0 0.0
2017-Nov-02 17:31N 46°12' W 123°46'0 0.0
2017-Nov-02 17:01N 46°12' W 123°46'0 0.0
2017-Nov-02 16:30N 46°12' W 123°46'0 0.0
2017-Nov-02 16:01N 46°12' W 123°46'0 0.0
2017-Nov-02 15:31N 46°12' W 123°46'0 0.0
2017-Nov-02 15:01N 46°12' W 123°46'0 0.0
2017-Nov-02 14:30N 46°12' W 123°46'0 0.0
2017-Nov-02 14:00N 46°12' W 123°46'0 0.0
2017-Nov-02 13:31N 46°12' W 123°46'0 0.0
2017-Nov-02 13:01N 46°12' W 123°46'0 0.0
2017-Nov-02 12:31N 46°12' W 123°46'0 0.0
2017-Nov-02 12:01N 46°12' W 123°46'0 0.0
2017-Nov-02 11:30N 46°12' W 123°46'0 0.0
2017-Nov-02 11:01N 46°12' W 123°46'0 0.0
2017-Nov-02 10:31N 46°12' W 123°46'0 0.0
2017-Nov-02 10:01N 46°12' W 123°46'1 1.8
2017-Nov-02 09:30N 46°13' W 123°46'4 8.2
2017-Nov-02 09:01N 46°12' W 123°51'612.2
2017-Nov-02 08:30N 46°14' W 123°59'2 3.9
2017-Nov-02 08:01N 46°15' W 124°02'4 8.4
2017-Nov-02 07:31N 46°17' W 124°07'5 9.8
2017-Nov-02 07:00N 46°21' W 124°10'5 9.4
2017-Nov-02 06:31N 46°26' W 124°13'5 9.3
2017-Nov-02 06:01N 46°30' W 124°15'5 9.4
2017-Nov-02 05:31N 46°34' W 124°18'5 9.4
2017-Nov-02 05:00N 46°39' W 124°20'5 9.1
2017-Nov-02 04:30N 46°43' W 124°23'4 8.9
2017-Nov-02 04:01N 46°47' W 124°25'4 9.0
2017-Nov-02 03:31N 46°51' W 124°28'4 9.0
2017-Nov-02 03:00N 46°55' W 124°31'4 9.0
2017-Nov-02 02:30N 46°59' W 124°33'50 1.9
2017-Nov-01 01:04N 47°44' W 125°05'0 4.0
2017-Nov-01 01:01N 47°44' W 125°05'21 5.7
2017-Oct-31 21:24N 48°02' W 125°18'1 2.5
2017-Oct-31 20:56N 48°03' W 125°19'10 2.9
2017-Oct-31 17:28N 48°13' W 125°13'2 2.9
2017-Oct-31 16:55N 48°11' W 125°14'1 3.3
2017-Oct-31 16:28N 48°10' W 125°15'10 5.7
2017-Oct-31 14:38N 47°60' W 125°19'0 0.2
2017-Oct-31 14:30N 47°60' W 125°19'5 3.4
2017-Oct-31 13:07N 47°55' W 125°16'2 4.4
2017-Oct-31 12:45N 47°54' W 125°15'1 4.9
2017-Oct-31 12:29N 47°53' W 125°14'2 4.9
2017-Oct-31 12:00N 47°51' W 125°12'4 7.3
2017-Oct-31 11:27N 47°47' W 125°10'18 8.3
2017-Oct-31 09:19N 47°31' W 124°59'3 8.5
2017-Oct-31 08:59N 47°29' W 124°57'8 8.3
2017-Oct-31 08:00N 47°21' W 124°52'4 8.1
2017-Oct-31 07:31N 47°18' W 124°49'20 8.7
2017-Oct-31 05:17N 46°60' W 124°37'2 8.9
2017-Oct-31 05:00N 46°58' W 124°35'4 9.0
2017-Oct-31 04:30N 46°54' W 124°33'5 9.1
2017-Oct-31 04:00N 46°49' W 124°31'4 9.0
2017-Oct-31 03:31N 46°45' W 124°28'4 8.8
2017-Oct-31 03:00N 46°42' W 124°24'4 8.3
2017-Oct-31 02:31N 46°38' W 124°22'4 8.2
2017-Oct-31 02:00N 46°34' W 124°19'4 7.8
2017-Oct-31 01:28N 46°30' W 124°17'3 7.4
2017-Oct-31 01:01N 46°27' W 124°14'4 7.4
2017-Oct-31 00:31N 46°24' W 124°12'4 7.4
2017-Oct-31 00:00N 46°21' W 124°10'4 7.8
2017-Oct-30 23:31N 46°17' W 124°08'4 7.9
2017-Oct-30 23:01N 46°15' W 124°03'510.0
2017-Oct-30 22:31N 46°13' W 123°57'510.2
2017-Oct-30 22:01N 46°12' W 123°49'3 5.1
2017-Oct-30 21:31N 46°12' W 123°46'0 0.0
2017-Oct-30 21:00N 46°12' W 123°46'0 0.0
2017-Oct-30 20:30N 46°12' W 123°46'0 0.0
2017-Oct-30 20:01N 46°12' W 123°46'0 0.0
2017-Oct-30 19:30N 46°12' W 123°46'0 0.0
2017-Oct-30 19:00N 46°12' W 123°46'0 0.0
2017-Oct-30 18:30N 46°12' W 123°46'0 0.0
2017-Oct-30 18:00N 46°12' W 123°46'0 0.0
2017-Oct-30 17:31N 46°12' W 123°46'0 0.0
2017-Oct-30 17:00N 46°12' W 123°46'0 0.0
2017-Oct-30 16:30N 46°12' W 123°46'0 0.0
2017-Oct-30 16:01N 46°12' W 123°46'0 0.0
2017-Oct-30 15:31N 46°12' W 123°46'0 0.0
2017-Oct-30 15:01N 46°12' W 123°46'0 0.0
2017-Oct-30 14:23N 46°12' W 123°46'0 0.0
2017-Oct-30 13:31N 46°12' W 123°46'0 0.0
2017-Oct-30 13:00N 46°12' W 123°46'0 0.0
2017-Oct-30 12:31N 46°12' W 123°46'0 0.0
2017-Oct-30 12:00N 46°12' W 123°46'0 0.0
2017-Oct-30 11:31N 46°12' W 123°46'0 0.0
2017-Oct-30 11:01N 46°12' W 123°46'0 0.0
2017-Oct-30 10:31N 46°12' W 123°46'0 0.0
2017-Oct-30 10:01N 46°12' W 123°46'0 0.0
2017-Oct-30 09:30N 46°12' W 123°46'0 0.0
2017-Oct-30 09:01N 46°12' W 123°46'0 0.0
2017-Oct-30 08:31N 46°12' W 123°46'0 0.0
2017-Oct-30 08:01N 46°12' W 123°46'0 0.0
2017-Oct-30 07:30N 46°12' W 123°46'0 0.0
2017-Oct-30 07:01N 46°12' W 123°46'0 0.0
2017-Oct-30 06:31N 46°12' W 123°46'0 0.0
2017-Oct-30 06:00N 46°12' W 123°46'0 0.0
2017-Oct-30 05:31N 46°12' W 123°46'0 0.0
2017-Oct-30 05:00N 46°12' W 123°46'0 0.0
2017-Oct-30 04:30N 46°12' W 123°46'0 0.0
2017-Oct-30 04:00N 46°12' W 123°46'0 0.0
2017-Oct-30 03:30N 46°12' W 123°46'0 0.0
2017-Oct-30 02:47N 46°12' W 123°46'0 0.0
2017-Oct-30 02:31N 46°12' W 123°46'0 0.0
2017-Oct-30 01:49N 46°12' W 123°46'0 0.0
2017-Oct-30 01:31N 46°12' W 123°46'0 0.0
2017-Oct-30 01:01N 46°12' W 123°46'0 0.0
2017-Oct-30 00:31N 46°12' W 123°46'0 0.0
2017-Oct-30 00:01N 46°12' W 123°46'0 0.0
2017-Oct-29 23:30N 46°12' W 123°46'0 0.0
2017-Oct-29 23:00N 46°12' W 123°46'0 0.0
2017-Oct-29 22:30N 46°12' W 123°46'0 0.0
2017-Oct-29 22:01N 46°12' W 123°46'0 0.0
2017-Oct-29 21:30N 46°12' W 123°46'0 0.0
2017-Oct-29 21:01N 46°12' W 123°46'0 0.0
2017-Oct-29 20:30N 46°12' W 123°46'0 0.0
2017-Oct-29 20:01N 46°12' W 123°46'0 0.0
2017-Oct-29 19:30N 46°12' W 123°46'0 0.0
2017-Oct-29 19:01N 46°12' W 123°46'0 0.0
2017-Oct-29 18:31N 46°12' W 123°46'0 0.0
2017-Oct-29 18:00N 46°12' W 123°46'0 0.0
2017-Oct-29 17:31N 46°12' W 123°46'0 0.0
2017-Oct-29 17:01N 46°12' W 123°46'0 0.0
2017-Oct-29 16:30N 46°12' W 123°46'0 0.0
2017-Oct-29 16:01N 46°12' W 123°46'3 5.9
2017-Oct-29 15:30N 46°12' W 123°50'5 9.9
2017-Oct-29 15:01N 46°13' W 123°57'510.3
2017-Oct-29 14:31N 46°15' W 124°03'4 8.2
2017-Oct-29 14:00N 46°18' W 124°08'5 9.4
2017-Oct-29 13:30N 46°22' W 124°11'5 9.2
2017-Oct-29 13:01N 46°26' W 124°13'5 9.4
2017-Oct-29 12:29N 46°31' W 124°16'4 9.3
2017-Oct-29 12:01N 46°35' W 124°18'4 8.9
2017-Oct-29 11:31N 46°39' W 124°21'4 8.9
2017-Oct-29 11:00N 46°43' W 124°24'4 8.6
2017-Oct-29 10:31N 46°47' W 124°26'4 8.4
2017-Oct-29 10:01N 46°51' W 124°28'4 8.6
2017-Oct-29 09:30N 46°55' W 124°31'4 8.7
2017-Oct-29 09:00N 46°59' W 124°33'40 8.7
2017-Oct-29 04:24N 47°36' W 124°57'7 9.3
2017-Oct-29 03:41N 47°42' W 125°01'29 3.2
2017-Oct-28 18:24N 48°09' W 125°15'1 3.4
2017-Oct-28 18:00N 48°11' W 125°14'1 1.1
2017-Oct-28 17:01N 48°10' W 125°13'0 3.4
2017-Oct-28 16:59N 48°10' W 125°13'2 4.1
2017-Oct-28 16:30N 48°08' W 125°14'49 9.5
2017-Oct-28 11:19N 47°22' W 124°49'310.1
2017-Oct-28 11:00N 47°19' W 124°47'510.7
2017-Oct-28 10:30N 47°14' W 124°43'510.9
2017-Oct-28 10:00N 47°09' W 124°40'610.9
2017-Oct-28 09:29N 47°04' W 124°37'511.3
2017-Oct-28 09:00N 46°59' W 124°34'611.1
2017-Oct-28 08:30N 46°54' W 124°30'611.0
2017-Oct-28 08:00N 46°49' W 124°27'611.3
2017-Oct-28 07:31N 46°44' W 124°24'611.1
2017-Oct-28 07:01N 46°39' W 124°21'510.8
2017-Oct-28 06:30N 46°34' W 124°18'710.5
2017-Oct-28 05:50N 46°27' W 124°13'310.0
2017-Oct-28 05:30N 46°24' W 124°12'510.2
2017-Oct-28 05:00N 46°19' W 124°09'5 9.9
2017-Oct-28 04:30N 46°15' W 124°05'612.5
2017-Oct-28 04:00N 46°13' W 123°57'611.4
2017-Oct-28 03:30N 46°12' W 123°48'2 3.9
2017-Oct-28 03:00N 46°12' W 123°46'0 0.0
2017-Oct-28 02:30N 46°12' W 123°46'0 0.0
2017-Oct-28 02:00N 46°12' W 123°46'0 0.0
2017-Oct-28 01:30N 46°12' W 123°46'0 0.0
2017-Oct-28 01:00N 46°12' W 123°46'0 0.0
2017-Oct-28 00:30N 46°12' W 123°46'0 0.0
2017-Oct-28 00:00N 46°12' W 123°46'0 0.0
2017-Oct-27 23:31N 46°12' W 123°46'0 0.0
2017-Oct-27 23:01N 46°12' W 123°46'0 0.0
2017-Oct-27 22:31N 46°12' W 123°46'0 0.0
2017-Oct-27 22:01N 46°12' W 123°46'0 0.0
2017-Oct-27 21:29N 46°12' W 123°46'0 0.0
2017-Oct-27 21:01N 46°12' W 123°46'0 0.0
2017-Oct-27 20:30N 46°12' W 123°46'0 0.0
2017-Oct-27 20:01N 46°12' W 123°46'0 0.0
2017-Oct-27 19:31N 46°12' W 123°46'0 0.0
2017-Oct-27 18:59N 46°12' W 123°46'0 0.0
2017-Oct-27 18:28N 46°12' W 123°46'0 0.0
2017-Oct-27 18:01N 46°12' W 123°46'1 1.9
2017-Oct-27 17:30N 46°13' W 123°46'4 8.6
2017-Oct-27 17:00N 46°12' W 123°52'4 7.8
2017-Oct-27 16:31N 46°13' W 123°58'4 7.8
2017-Oct-27 16:00N 46°15' W 124°02'5 8.1
2017-Oct-27 15:22N 46°18' W 124°08'410.1
2017-Oct-27 15:01N 46°22' W 124°10'510.4
2017-Oct-27 14:31N 46°26' W 124°13'5 9.9
2017-Oct-27 14:01N 46°31' W 124°15'5 9.5
2017-Oct-27 13:30N 46°36' W 124°18'4 8.8
2017-Oct-27 13:00N 46°40' W 124°20'4 8.8
2017-Oct-27 12:30N 46°44' W 124°23'7 8.6
2017-Oct-27 11:43N 46°50' W 124°26'2 8.4
2017-Oct-27 11:30N 46°52' W 124°27'4 8.1
2017-Oct-27 11:01N 46°56' W 124°29'6 8.1
2017-Oct-27 10:20N 47°01' W 124°32'3 8.0
2017-Oct-27 10:00N 47°03' W 124°33'10 8.6
2017-Oct-27 08:50N 47°13' W 124°39'  

Dump ship's entire track history